sensor_id;sensor_type;location;lat;lon;timestamp;temperature;humidity
15819;DHT22;8010;53.986;12.106;2023-07-28T00:02:18;16.20;99.90
15819;DHT22;8010;53.986;12.106;2023-07-28T00:04:43;16.20;99.90
15819;DHT22;8010;53.986;12.106;2023-07-28T00:07:09;16.30;99.90
15819;DHT22;8010;53.986;12.106;2023-07-28T00:09:34;16.30;99.90
15819;DHT22;8010;53.986;12.106;2023-07-28T00:12:00;16.30;99.90
15819;DHT22;8010;53.986;12.106;2023-07-28T00:14:27;16.30;99.90
15819;DHT22;8010;53.986;12.106;2023-07-28T00:16:53;16.30;99.90
15819;DHT22;8010;53.986;12.106;2023-07-28T00:19:19;16.30;99.90
15819;DHT22;8010;53.986;12.106;2023-07-28T00:21:49;16.30;99.90
15819;DHT22;8010;53.986;12.106;2023-07-28T00:24:16;16.30;99.90
15819;DHT22;8010;53.986;12.106;2023-07-28T00:26:42;16.30;99.90
15819;DHT22;8010;53.986;12.106;2023-07-28T00:29:07;16.30;99.90
15819;DHT22;8010;53.986;12.106;2023-07-28T00:31:33;16.30;99.90
15819;DHT22;8010;53.986;12.106;2023-07-28T00:33:59;16.30;99.90
15819;DHT22;8010;53.986;12.106;2023-07-28T00:36:25;16.30;99.90
15819;DHT22;8010;53.986;12.106;2023-07-28T00:38:51;16.30;99.90
15819;DHT22;8010;53.986;12.106;2023-07-28T00:41:16;16.30;99.90
15819;DHT22;8010;53.986;12.106;2023-07-28T00:43:42;16.30;99.90
15819;DHT22;8010;53.986;12.106;2023-07-28T00:46:09;16.30;99.90
15819;DHT22;8010;53.986;12.106;2023-07-28T00:48:35;16.30;99.90
15819;DHT22;8010;53.986;12.106;2023-07-28T00:51:01;16.30;99.90
15819;DHT22;8010;53.986;12.106;2023-07-28T00:53:26;16.30;99.90
15819;DHT22;8010;53.986;12.106;2023-07-28T00:55:52;16.30;99.90
15819;DHT22;8010;53.986;12.106;2023-07-28T00:58:18;16.30;99.90
15819;DHT22;8010;53.986;12.106;2023-07-28T01:00:44;16.30;99.90
15819;DHT22;8010;53.986;12.106;2023-07-28T01:03:10;16.30;99.90
15819;DHT22;8010;53.986;12.106;2023-07-28T01:06:01;16.30;99.90
15819;DHT22;8010;53.986;12.106;2023-07-28T01:08:41;16.30;99.90
15819;DHT22;8010;53.986;12.106;2023-07-28T01:11:07;16.30;99.90
15819;DHT22;8010;53.986;12.106;2023-07-28T01:13:33;16.30;99.90
15819;DHT22;8010;53.986;12.106;2023-07-28T01:15:59;16.30;99.90
15819;DHT22;8010;53.986;12.106;2023-07-28T01:18:27;16.30;99.90
15819;DHT22;8010;53.986;12.106;2023-07-28T01:20:54;16.30;99.90
15819;DHT22;8010;53.986;12.106;2023-07-28T01:23:35;16.30;99.90
15819;DHT22;8010;53.986;12.106;2023-07-28T01:26:08;16.30;99.90
15819;DHT22;8010;53.986;12.106;2023-07-28T01:28:35;16.30;99.90
15819;DHT22;8010;53.986;12.106;2023-07-28T01:31:05;16.20;99.90
15819;DHT22;8010;53.986;12.106;2023-07-28T01:33:31;16.20;99.90
15819;DHT22;8010;53.986;12.106;2023-07-28T01:35:57;16.20;99.90
15819;DHT22;8010;53.986;12.106;2023-07-28T01:38:24;16.30;99.90
15819;DHT22;8010;53.986;12.106;2023-07-28T01:40:49;16.20;99.90
15819;DHT22;8010;53.986;12.106;2023-07-28T01:43:15;16.30;99.90
15819;DHT22;8010;53.986;12.106;2023-07-28T01:45:40;16.30;99.90
15819;DHT22;8010;53.986;12.106;2023-07-28T01:48:06;16.30;99.90
15819;DHT22;8010;53.986;12.106;2023-07-28T01:50:33;16.30;99.90
15819;DHT22;8010;53.986;12.106;2023-07-28T01:52:59;16.30;99.90
15819;DHT22;8010;53.986;12.106;2023-07-28T01:55:27;16.30;99.90
15819;DHT22;8010;53.986;12.106;2023-07-28T01:58:00;16.30;99.90
15819;DHT22;8010;53.986;12.106;2023-07-28T02:00:26;15.50;99.90
15819;DHT22;8010;53.986;12.106;2023-07-28T02:02:52;16.30;99.90
15819;DHT22;8010;53.986;12.106;2023-07-28T02:05:19;16.30;99.90
15819;DHT22;8010;53.986;12.106;2023-07-28T02:07:45;16.30;99.90
15819;DHT22;8010;53.986;12.106;2023-07-28T02:10:11;16.30;99.90
15819;DHT22;8010;53.986;12.106;2023-07-28T02:12:39;16.30;99.90
15819;DHT22;8010;53.986;12.106;2023-07-28T02:15:06;16.30;99.90
15819;DHT22;8010;53.986;12.106;2023-07-28T02:17:31;16.30;99.90
15819;DHT22;8010;53.986;12.106;2023-07-28T02:19:57;16.30;99.90
15819;DHT22;8010;53.986;12.106;2023-07-28T02:22:22;16.30;99.90
15819;DHT22;8010;53.986;12.106;2023-07-28T02:24:48;16.30;99.90
15819;DHT22;8010;53.986;12.106;2023-07-28T02:27:13;16.30;99.90
15819;DHT22;8010;53.986;12.106;2023-07-28T02:29:39;16.30;99.90
15819;DHT22;8010;53.986;12.106;2023-07-28T02:32:05;16.30;99.90
15819;DHT22;8010;53.986;12.106;2023-07-28T02:34:30;16.30;99.90
15819;DHT22;8010;53.986;12.106;2023-07-28T02:36:57;16.30;99.90
15819;DHT22;8010;53.986;12.106;2023-07-28T02:39:22;16.30;99.90
15819;DHT22;8010;53.986;12.106;2023-07-28T02:41:48;16.30;99.90
15819;DHT22;8010;53.986;12.106;2023-07-28T02:44:13;16.30;99.90
15819;DHT22;8010;53.986;12.106;2023-07-28T02:46:39;16.30;99.90
15819;DHT22;8010;53.986;12.106;2023-07-28T02:49:04;16.30;99.90
15819;DHT22;8010;53.986;12.106;2023-07-28T02:51:30;16.30;99.90
15819;DHT22;8010;53.986;12.106;2023-07-28T02:53:56;16.30;99.90
15819;DHT22;8010;53.986;12.106;2023-07-28T02:56:21;16.30;99.90
15819;DHT22;8010;53.986;12.106;2023-07-28T02:58:48;16.30;99.90
15819;DHT22;8010;53.986;12.106;2023-07-28T03:01:14;16.20;99.90
15819;DHT22;8010;53.986;12.106;2023-07-28T03:03:39;16.30;99.90
15819;DHT22;8010;53.986;12.106;2023-07-28T03:06:05;16.30;99.90
15819;DHT22;8010;53.986;12.106;2023-07-28T03:08:30;16.30;99.90
15819;DHT22;8010;53.986;12.106;2023-07-28T03:10:59;16.30;99.90
15819;DHT22;8010;53.986;12.106;2023-07-28T03:13:28;16.30;99.90
15819;DHT22;8010;53.986;12.106;2023-07-28T03:15:54;16.30;99.90
15819;DHT22;8010;53.986;12.106;2023-07-28T03:18:19;16.30;99.90
15819;DHT22;8010;53.986;12.106;2023-07-28T03:20:46;16.30;99.90
15819;DHT22;8010;53.986;12.106;2023-07-28T03:23:12;16.30;99.90
15819;DHT22;8010;53.986;12.106;2023-07-28T03:25:38;16.30;99.90
15819;DHT22;8010;53.986;12.106;2023-07-28T03:28:03;16.30;99.90
15819;DHT22;8010;53.986;12.106;2023-07-28T03:30:29;16.30;99.90
15819;DHT22;8010;53.986;12.106;2023-07-28T03:32:54;16.30;99.90
15819;DHT22;8010;53.986;12.106;2023-07-28T03:35:20;16.30;99.90
15819;DHT22;8010;53.986;12.106;2023-07-28T03:37:45;16.30;99.90
15819;DHT22;8010;53.986;12.106;2023-07-28T03:40:11;16.30;99.90
15819;DHT22;8010;53.986;12.106;2023-07-28T03:42:37;16.30;99.90
15819;DHT22;8010;53.986;12.106;2023-07-28T03:45:03;16.30;99.90
15819;DHT22;8010;53.986;12.106;2023-07-28T03:47:29;16.30;99.90
15819;DHT22;8010;53.986;12.106;2023-07-28T03:49:54;16.30;99.90
15819;DHT22;8010;53.986;12.106;2023-07-28T03:52:20;16.20;99.90
15819;DHT22;8010;53.986;12.106;2023-07-28T03:54:45;16.20;99.90
15819;DHT22;8010;53.986;12.106;2023-07-28T03:57:11;16.30;99.90
15819;DHT22;8010;53.986;12.106;2023-07-28T03:59:36;16.20;99.90
15819;DHT22;8010;53.986;12.106;2023-07-28T04:02:02;16.20;99.90
15819;DHT22;8010;53.986;12.106;2023-07-28T04:04:27;16.20;99.90
15819;DHT22;8010;53.986;12.106;2023-07-28T04:06:53;16.30;99.90
15819;DHT22;8010;53.986;12.106;2023-07-28T04:09:19;16.30;99.90
15819;DHT22;8010;53.986;12.106;2023-07-28T04:11:45;16.30;99.90
15819;DHT22;8010;53.986;12.106;2023-07-28T04:14:11;16.30;99.90
15819;DHT22;8010;53.986;12.106;2023-07-28T04:16:37;16.30;99.90
15819;DHT22;8010;53.986;12.106;2023-07-28T04:19:03;16.30;99.90
15819;DHT22;8010;53.986;12.106;2023-07-28T04:21:28;16.30;99.90
15819;DHT22;8010;53.986;12.106;2023-07-28T04:23:54;16.40;99.90
15819;DHT22;8010;53.986;12.106;2023-07-28T04:26:19;16.30;99.90
15819;DHT22;8010;53.986;12.106;2023-07-28T04:28:45;16.30;99.90
15819;DHT22;8010;53.986;12.106;2023-07-28T04:31:11;16.30;99.90
15819;DHT22;8010;53.986;12.106;2023-07-28T04:33:36;16.30;99.90
15819;DHT22;8010;53.986;12.106;2023-07-28T04:36:05;16.30;99.90
15819;DHT22;8010;53.986;12.106;2023-07-28T04:38:30;16.30;99.90
15819;DHT22;8010;53.986;12.106;2023-07-28T04:40:56;16.40;99.90
15819;DHT22;8010;53.986;12.106;2023-07-28T04:43:21;16.40;99.90
15819;DHT22;8010;53.986;12.106;2023-07-28T04:45:47;16.40;99.90
15819;DHT22;8010;53.986;12.106;2023-07-28T04:48:12;16.40;99.90
15819;DHT22;8010;53.986;12.106;2023-07-28T04:50:38;16.40;99.90
15819;DHT22;8010;53.986;12.106;2023-07-28T04:53:03;16.40;99.90
15819;DHT22;8010;53.986;12.106;2023-07-28T04:55:29;16.50;99.90
15819;DHT22;8010;53.986;12.106;2023-07-28T04:57:55;16.50;99.90
15819;DHT22;8010;53.986;12.106;2023-07-28T05:00:21;16.50;99.90
15819;DHT22;8010;53.986;12.106;2023-07-28T05:02:47;16.60;99.90
15819;DHT22;8010;53.986;12.106;2023-07-28T05:05:13;16.60;99.90
15819;DHT22;8010;53.986;12.106;2023-07-28T05:07:38;16.60;99.90
15819;DHT22;8010;53.986;12.106;2023-07-28T05:10:04;16.60;99.90
15819;DHT22;8010;53.986;12.106;2023-07-28T05:12:29;16.60;99.90
15819;DHT22;8010;53.986;12.106;2023-07-28T05:14:55;16.60;99.90
15819;DHT22;8010;53.986;12.106;2023-07-28T05:17:20;16.60;99.90
15819;DHT22;8010;53.986;12.106;2023-07-28T05:19:46;16.60;99.90
15819;DHT22;8010;53.986;12.106;2023-07-28T05:22:11;16.60;99.90
15819;DHT22;8010;53.986;12.106;2023-07-28T05:24:37;16.70;99.90
15819;DHT22;8010;53.986;12.106;2023-07-28T05:27:02;16.70;99.90
15819;DHT22;8010;53.986;12.106;2023-07-28T05:29:28;16.70;99.90
15819;DHT22;8010;53.986;12.106;2023-07-28T05:31:53;16.70;99.90
15819;DHT22;8010;53.986;12.106;2023-07-28T05:34:19;16.80;99.90
15819;DHT22;8010;53.986;12.106;2023-07-28T05:36:44;17.10;99.90
15819;DHT22;8010;53.986;12.106;2023-07-28T05:39:10;16.90;99.90
15819;DHT22;8010;53.986;12.106;2023-07-28T05:41:38;16.90;99.90
15819;DHT22;8010;53.986;12.106;2023-07-28T05:44:04;17.00;99.90
15819;DHT22;8010;53.986;12.106;2023-07-28T05:46:30;17.00;99.90
15819;DHT22;8010;53.986;12.106;2023-07-28T05:48:56;17.10;99.90
15819;DHT22;8010;53.986;12.106;2023-07-28T05:51:22;17.10;99.90
15819;DHT22;8010;53.986;12.106;2023-07-28T05:53:48;17.10;99.90
15819;DHT22;8010;53.986;12.106;2023-07-28T05:56:14;17.10;99.90
15819;DHT22;8010;53.986;12.106;2023-07-28T05:58:39;17.10;99.90
15819;DHT22;8010;53.986;12.106;2023-07-28T06:01:05;17.10;99.90
15819;DHT22;8010;53.986;12.106;2023-07-28T06:03:31;17.10;99.90
15819;DHT22;8010;53.986;12.106;2023-07-28T06:05:57;17.20;99.90
15819;DHT22;8010;53.986;12.106;2023-07-28T06:08:22;17.20;99.90
15819;DHT22;8010;53.986;12.106;2023-07-28T06:10:48;17.30;99.90
15819;DHT22;8010;53.986;12.106;2023-07-28T06:13:14;17.30;99.90
15819;DHT22;8010;53.986;12.106;2023-07-28T06:15:41;17.30;99.90
15819;DHT22;8010;53.986;12.106;2023-07-28T06:18:07;17.30;99.90
15819;DHT22;8010;53.986;12.106;2023-07-28T06:20:32;17.30;99.90
15819;DHT22;8010;53.986;12.106;2023-07-28T06:22:59;17.30;99.90
15819;DHT22;8010;53.986;12.106;2023-07-28T06:25:24;17.30;99.90
15819;DHT22;8010;53.986;12.106;2023-07-28T06:27:50;17.30;99.90
15819;DHT22;8010;53.986;12.106;2023-07-28T06:30:15;17.30;99.90
15819;DHT22;8010;53.986;12.106;2023-07-28T06:32:41;17.40;99.90
15819;DHT22;8010;53.986;12.106;2023-07-28T06:35:06;17.40;99.90
15819;DHT22;8010;53.986;12.106;2023-07-28T06:37:33;17.50;99.90
15819;DHT22;8010;53.986;12.106;2023-07-28T06:39:58;17.50;99.90
15819;DHT22;8010;53.986;12.106;2023-07-28T06:42:24;17.70;99.90
15819;DHT22;8010;53.986;12.106;2023-07-28T06:44:51;17.70;99.90
15819;DHT22;8010;53.986;12.106;2023-07-28T06:47:18;17.80;99.90
15819;DHT22;8010;53.986;12.106;2023-07-28T06:49:44;17.90;99.90
15819;DHT22;8010;53.986;12.106;2023-07-28T06:52:09;17.90;99.90
15819;DHT22;8010;53.986;12.106;2023-07-28T06:54:36;17.90;99.90
15819;DHT22;8010;53.986;12.106;2023-07-28T06:57:01;18.00;99.90
15819;DHT22;8010;53.986;12.106;2023-07-28T06:59:27;18.10;99.90
15819;DHT22;8010;53.986;12.106;2023-07-28T07:01:52;18.10;99.90
15819;DHT22;8010;53.986;12.106;2023-07-28T07:04:19;18.10;99.90
15819;DHT22;8010;53.986;12.106;2023-07-28T07:06:44;18.10;99.90
15819;DHT22;8010;53.986;12.106;2023-07-28T07:09:10;18.10;99.90
15819;DHT22;8010;53.986;12.106;2023-07-28T07:11:39;18.00;99.90
15819;DHT22;8010;53.986;12.106;2023-07-28T07:14:05;18.00;99.90
15819;DHT22;8010;53.986;12.106;2023-07-28T07:16:31;18.00;99.90
15819;DHT22;8010;53.986;12.106;2023-07-28T07:18:56;18.00;99.90
15819;DHT22;8010;53.986;12.106;2023-07-28T07:21:22;18.00;99.90
15819;DHT22;8010;53.986;12.106;2023-07-28T07:23:47;18.00;99.90
15819;DHT22;8010;53.986;12.106;2023-07-28T07:26:13;18.00;99.90
15819;DHT22;8010;53.986;12.106;2023-07-28T07:28:38;18.10;99.90
15819;DHT22;8010;53.986;12.106;2023-07-28T07:31:04;18.20;99.90
15819;DHT22;8010;53.986;12.106;2023-07-28T07:33:29;18.30;99.90
15819;DHT22;8010;53.986;12.106;2023-07-28T07:35:55;18.50;99.90
15819;DHT22;8010;53.986;12.106;2023-07-28T07:38:20;18.60;99.90
15819;DHT22;8010;53.986;12.106;2023-07-28T07:40:47;18.70;99.90
15819;DHT22;8010;53.986;12.106;2023-07-28T07:43:13;18.70;99.90
15819;DHT22;8010;53.986;12.106;2023-07-28T07:45:44;18.80;99.90
15819;DHT22;8010;53.986;12.106;2023-07-28T07:48:11;18.90;99.90
15819;DHT22;8010;53.986;12.106;2023-07-28T07:50:36;19.00;99.90
15819;DHT22;8010;53.986;12.106;2023-07-28T07:53:02;19.10;99.90
15819;DHT22;8010;53.986;12.106;2023-07-28T07:55:27;19.10;99.90
15819;DHT22;8010;53.986;12.106;2023-07-28T07:57:53;19.30;99.90
15819;DHT22;8010;53.986;12.106;2023-07-28T08:00:18;19.30;99.90
15819;DHT22;8010;53.986;12.106;2023-07-28T08:02:44;19.40;99.90
15819;DHT22;8010;53.986;12.106;2023-07-28T08:05:09;19.50;99.90
15819;DHT22;8010;53.986;12.106;2023-07-28T08:07:35;19.70;99.90
15819;DHT22;8010;53.986;12.106;2023-07-28T08:10:01;19.90;99.90
15819;DHT22;8010;53.986;12.106;2023-07-28T08:12:27;20.10;99.90
15819;DHT22;8010;53.986;12.106;2023-07-28T08:14:53;20.20;99.90
15819;DHT22;8010;53.986;12.106;2023-07-28T08:17:19;20.30;99.90
15819;DHT22;8010;53.986;12.106;2023-07-28T08:19:44;20.50;99.90
15819;DHT22;8010;53.986;12.106;2023-07-28T08:22:10;20.60;99.90
15819;DHT22;8010;53.986;12.106;2023-07-28T08:24:37;20.60;99.90
15819;DHT22;8010;53.986;12.106;2023-07-28T08:27:03;20.50;99.90
15819;DHT22;8010;53.986;12.106;2023-07-28T08:29:28;20.40;99.90
15819;DHT22;8010;53.986;12.106;2023-07-28T08:31:54;20.30;99.90
15819;DHT22;8010;53.986;12.106;2023-07-28T08:34:19;20.30;99.90
15819;DHT22;8010;53.986;12.106;2023-07-28T08:36:45;20.20;99.90
15819;DHT22;8010;53.986;12.106;2023-07-28T08:39:11;20.10;99.90
15819;DHT22;8010;53.986;12.106;2023-07-28T08:41:37;20.20;99.90
15819;DHT22;8010;53.986;12.106;2023-07-28T08:44:03;20.10;99.90
15819;DHT22;8010;53.986;12.106;2023-07-28T08:46:28;20.10;99.90
15819;DHT22;8010;53.986;12.106;2023-07-28T08:48:54;20.10;99.90
15819;DHT22;8010;53.986;12.106;2023-07-28T08:51:22;20.20;99.90
15819;DHT22;8010;53.986;12.106;2023-07-28T08:53:49;20.30;99.90
15819;DHT22;8010;53.986;12.106;2023-07-28T08:56:14;20.40;99.90
15819;DHT22;8010;53.986;12.106;2023-07-28T08:58:40;20.40;99.90
15819;DHT22;8010;53.986;12.106;2023-07-28T09:01:05;20.50;99.90
15819;DHT22;8010;53.986;12.106;2023-07-28T09:03:31;20.60;99.90
15819;DHT22;8010;53.986;12.106;2023-07-28T09:06:00;20.70;99.90
15819;DHT22;8010;53.986;12.106;2023-07-28T09:08:26;20.80;99.90
15819;DHT22;8010;53.986;12.106;2023-07-28T09:10:52;21.00;99.90
15819;DHT22;8010;53.986;12.106;2023-07-28T09:13:18;21.20;99.90
15819;DHT22;8010;53.986;12.106;2023-07-28T09:15:44;21.40;99.90
15819;DHT22;8010;53.986;12.106;2023-07-28T09:18:11;21.50;99.90
15819;DHT22;8010;53.986;12.106;2023-07-28T09:20:39;21.60;99.90
15819;DHT22;8010;53.986;12.106;2023-07-28T09:23:07;21.70;99.90
15819;DHT22;8010;53.986;12.106;2023-07-28T09:25:34;21.80;99.90
15819;DHT22;8010;53.986;12.106;2023-07-28T09:28:00;21.90;99.90
15819;DHT22;8010;53.986;12.106;2023-07-28T09:30:26;22.00;99.90
15819;DHT22;8010;53.986;12.106;2023-07-28T09:32:55;22.00;99.90
15819;DHT22;8010;53.986;12.106;2023-07-28T09:35:22;22.00;99.90
15819;DHT22;8010;53.986;12.106;2023-07-28T09:37:49;22.00;99.90
15819;DHT22;8010;53.986;12.106;2023-07-28T09:40:20;21.90;99.90
15819;DHT22;8010;53.986;12.106;2023-07-28T09:42:48;21.80;99.90
15819;DHT22;8010;53.986;12.106;2023-07-28T09:45:17;21.70;99.90
15819;DHT22;8010;53.986;12.106;2023-07-28T09:47:46;21.60;99.90
15819;DHT22;8010;53.986;12.106;2023-07-28T09:50:15;21.60;99.90
15819;DHT22;8010;53.986;12.106;2023-07-28T09:52:43;21.60;99.90
15819;DHT22;8010;53.986;12.106;2023-07-28T09:55:10;21.60;99.90
15819;DHT22;8010;53.986;12.106;2023-07-28T10:00:32;21.80;99.90
15819;DHT22;8010;53.986;12.106;2023-07-28T10:02:58;22.00;99.90
15819;DHT22;8010;53.986;12.106;2023-07-28T10:05:25;22.10;99.90
15819;DHT22;8010;53.986;12.106;2023-07-28T10:07:51;22.10;99.90
15819;DHT22;8010;53.986;12.106;2023-07-28T10:10:17;22.20;99.90
15819;DHT22;8010;53.986;12.106;2023-07-28T10:12:50;22.20;99.90
15819;DHT22;8010;53.986;12.106;2023-07-28T10:15:17;22.30;99.90
15819;DHT22;8010;53.986;12.106;2023-07-28T10:17:44;22.50;99.90
15819;DHT22;8010;53.986;12.106;2023-07-28T10:20:30;22.90;99.90
15819;DHT22;8010;53.986;12.106;2023-07-28T10:23:07;23.20;99.90
15819;DHT22;8010;53.986;12.106;2023-07-28T10:25:34;23.40;99.90
15819;DHT22;8010;53.986;12.106;2023-07-28T10:28:01;23.40;99.90
15819;DHT22;8010;53.986;12.106;2023-07-28T10:30:28;23.20;99.90
15819;DHT22;8010;53.986;12.106;2023-07-28T10:32:55;23.20;99.90
15819;DHT22;8010;53.986;12.106;2023-07-28T10:35:25;23.20;99.90
15819;DHT22;8010;53.986;12.106;2023-07-28T10:37:51;23.20;99.90
15819;DHT22;8010;53.986;12.106;2023-07-28T10:40:29;23.10;99.90
15819;DHT22;8010;53.986;12.106;2023-07-28T10:43:02;23.10;99.90
15819;DHT22;8010;53.986;12.106;2023-07-28T10:45:29;23.10;99.90
15819;DHT22;8010;53.986;12.106;2023-07-28T10:47:56;22.90;99.90
15819;DHT22;8010;53.986;12.106;2023-07-28T10:50:30;23.10;99.90
15819;DHT22;8010;53.986;12.106;2023-07-28T10:52:56;23.50;99.90
15819;DHT22;8010;53.986;12.106;2023-07-28T10:55:25;24.20;99.90
15819;DHT22;8010;53.986;12.106;2023-07-28T10:57:52;24.70;99.90
15819;DHT22;8010;53.986;12.106;2023-07-28T11:00:19;25.30;99.90
15819;DHT22;8010;53.986;12.106;2023-07-28T11:02:46;25.60;99.90
15819;DHT22;8010;53.986;12.106;2023-07-28T11:05:18;25.60;99.90
15819;DHT22;8010;53.986;12.106;2023-07-28T11:07:44;25.80;99.90
15819;DHT22;8010;53.986;12.106;2023-07-28T11:10:10;26.30;99.90
15819;DHT22;8010;53.986;12.106;2023-07-28T11:12:42;26.20;99.90
15819;DHT22;8010;53.986;12.106;2023-07-28T11:15:09;25.80;99.90
15819;DHT22;8010;53.986;12.106;2023-07-28T11:17:44;25.20;99.90
15819;DHT22;8010;53.986;12.106;2023-07-28T11:20:17;24.60;99.90
15819;DHT22;8010;53.986;12.106;2023-07-28T11:22:51;24.10;99.90
15819;DHT22;8010;53.986;12.106;2023-07-28T11:25:17;23.80;99.90
15819;DHT22;8010;53.986;12.106;2023-07-28T11:27:44;23.80;99.90
15819;DHT22;8010;53.986;12.106;2023-07-28T11:30:15;23.90;99.90
15819;DHT22;8010;53.986;12.106;2023-07-28T11:32:44;24.30;99.90
15819;DHT22;8010;53.986;12.106;2023-07-28T11:35:11;25.00;99.90
15819;DHT22;8010;53.986;12.106;2023-07-28T11:37:38;25.60;99.90
15819;DHT22;8010;53.986;12.106;2023-07-28T11:40:05;25.70;99.90
15819;DHT22;8010;53.986;12.106;2023-07-28T11:42:40;25.20;99.90
15819;DHT22;8010;53.986;12.106;2023-07-28T11:45:07;24.70;99.90
15819;DHT22;8010;53.986;12.106;2023-07-28T11:47:33;24.40;99.90
15819;DHT22;8010;53.986;12.106;2023-07-28T11:49:59;24.20;99.90
15819;DHT22;8010;53.986;12.106;2023-07-28T11:52:31;24.00;99.90
15819;DHT22;8010;53.986;12.106;2023-07-28T11:55:01;24.00;99.90
15819;DHT22;8010;53.986;12.106;2023-07-28T11:57:29;24.00;99.90
15819;DHT22;8010;53.986;12.106;2023-07-28T11:59:56;24.00;99.90
15819;DHT22;8010;53.986;12.106;2023-07-28T12:02:29;24.10;99.90
15819;DHT22;8010;53.986;12.106;2023-07-28T12:04:56;24.50;99.90
15819;DHT22;8010;53.986;12.106;2023-07-28T12:07:32;25.20;99.90
15819;DHT22;8010;53.986;12.106;2023-07-28T12:10:05;25.90;99.90
15819;DHT22;8010;53.986;12.106;2023-07-28T12:12:45;26.60;99.90
15819;DHT22;8010;53.986;12.106;2023-07-28T12:15:21;26.80;99.90
15819;DHT22;8010;53.986;12.106;2023-07-28T12:18:07;26.60;99.90
15819;DHT22;8010;53.986;12.106;2023-07-28T12:20:38;27.00;99.90
15819;DHT22;8010;53.986;12.106;2023-07-28T12:23:05;27.40;99.90
15819;DHT22;8010;53.986;12.106;2023-07-28T12:25:31;27.90;99.90
15819;DHT22;8010;53.986;12.106;2023-07-28T12:27:57;28.30;99.90
15819;DHT22;8010;53.986;12.106;2023-07-28T12:30:23;28.40;99.90
15819;DHT22;8010;53.986;12.106;2023-07-28T12:32:49;28.10;99.90
15819;DHT22;8010;53.986;12.106;2023-07-28T12:35:14;27.90;99.90
15819;DHT22;8010;53.986;12.106;2023-07-28T12:37:40;27.40;99.90
15819;DHT22;8010;53.986;12.106;2023-07-28T12:40:07;27.50;99.90
15819;DHT22;8010;53.986;12.106;2023-07-28T12:42:33;27.70;99.90
15819;DHT22;8010;53.986;12.106;2023-07-28T12:44:59;27.50;99.90
15819;DHT22;8010;53.986;12.106;2023-07-28T12:47:24;27.30;99.90
15819;DHT22;8010;53.986;12.106;2023-07-28T12:49:50;27.30;99.90
15819;DHT22;8010;53.986;12.106;2023-07-28T12:52:15;27.50;99.90
15819;DHT22;8010;53.986;12.106;2023-07-28T12:54:41;27.60;99.90
15819;DHT22;8010;53.986;12.106;2023-07-28T12:57:08;27.50;99.90
15819;DHT22;8010;53.986;12.106;2023-07-28T12:59:35;27.10;99.90
15819;DHT22;8010;53.986;12.106;2023-07-28T13:02:01;26.60;99.90
15819;DHT22;8010;53.986;12.106;2023-07-28T13:04:26;26.70;99.90
15819;DHT22;8010;53.986;12.106;2023-07-28T13:06:52;27.00;99.90
15819;DHT22;8010;53.986;12.106;2023-07-28T13:09:17;27.50;99.90
15819;DHT22;8010;53.986;12.106;2023-07-28T13:11:43;28.00;99.90
15819;DHT22;8010;53.986;12.106;2023-07-28T13:14:08;28.30;99.90
15819;DHT22;8010;53.986;12.106;2023-07-28T13:16:34;28.50;99.90
15819;DHT22;8010;53.986;12.106;2023-07-28T13:18:59;28.40;99.90
15819;DHT22;8010;53.986;12.106;2023-07-28T13:21:25;28.40;99.90
15819;DHT22;8010;53.986;12.106;2023-07-28T13:23:51;29.20;99.90
15819;DHT22;8010;53.986;12.106;2023-07-28T13:26:16;27.60;99.90
15819;DHT22;8010;53.986;12.106;2023-07-28T13:28:42;27.80;99.90
15819;DHT22;8010;53.986;12.106;2023-07-28T13:31:12;28.10;99.90
15819;DHT22;8010;53.986;12.106;2023-07-28T13:33:38;28.70;99.90
15819;DHT22;8010;53.986;12.106;2023-07-28T13:36:04;29.20;99.90
15819;DHT22;8010;53.986;12.106;2023-07-28T13:38:32;29.50;99.90
15819;DHT22;8010;53.986;12.106;2023-07-28T13:40:58;29.90;99.90
15819;DHT22;8010;53.986;12.106;2023-07-28T13:43:23;30.00;99.90
15819;DHT22;8010;53.986;12.106;2023-07-28T13:45:49;29.90;99.90
15819;DHT22;8010;53.986;12.106;2023-07-28T13:48:14;29.90;99.90
15819;DHT22;8010;53.986;12.106;2023-07-28T13:50:40;29.60;99.90
15819;DHT22;8010;53.986;12.106;2023-07-28T13:53:05;29.20;99.90
15819;DHT22;8010;53.986;12.106;2023-07-28T13:55:31;29.20;99.90
15819;DHT22;8010;53.986;12.106;2023-07-28T13:57:56;29.40;99.90
15819;DHT22;8010;53.986;12.106;2023-07-28T14:00:22;29.50;99.90
15819;DHT22;8010;53.986;12.106;2023-07-28T14:02:47;29.30;99.90
15819;DHT22;8010;53.986;12.106;2023-07-28T14:05:13;29.20;99.90
15819;DHT22;8010;53.986;12.106;2023-07-28T14:07:38;28.80;99.90
15819;DHT22;8010;53.986;12.106;2023-07-28T14:10:04;28.70;99.90
15819;DHT22;8010;53.986;12.106;2023-07-28T14:12:30;28.90;99.90
15819;DHT22;8010;53.986;12.106;2023-07-28T14:14:55;29.10;99.90
15819;DHT22;8010;53.986;12.106;2023-07-28T14:17:21;29.20;99.90
15819;DHT22;8010;53.986;12.106;2023-07-28T14:19:46;29.50;99.90
15819;DHT22;8010;53.986;12.106;2023-07-28T14:22:12;29.50;99.90
15819;DHT22;8010;53.986;12.106;2023-07-28T14:24:37;29.30;99.90
15819;DHT22;8010;53.986;12.106;2023-07-28T14:27:04;29.50;99.90
15819;DHT22;8010;53.986;12.106;2023-07-28T14:29:29;29.60;99.90
15819;DHT22;8010;53.986;12.106;2023-07-28T14:31:55;29.60;99.90
15819;DHT22;8010;53.986;12.106;2023-07-28T14:34:20;29.80;99.90
15819;DHT22;8010;53.986;12.106;2023-07-28T14:36:46;29.80;99.90
15819;DHT22;8010;53.986;12.106;2023-07-28T14:39:11;29.80;99.90
15819;DHT22;8010;53.986;12.106;2023-07-28T14:41:37;29.80;99.90
15819;DHT22;8010;53.986;12.106;2023-07-28T14:44:03;29.80;99.90
15819;DHT22;8010;53.986;12.106;2023-07-28T14:46:28;29.90;99.90
15819;DHT22;8010;53.986;12.106;2023-07-28T14:48:54;29.90;99.90
15819;DHT22;8010;53.986;12.106;2023-07-28T14:51:20;30.00;99.90
15819;DHT22;8010;53.986;12.106;2023-07-28T14:53:46;29.90;99.90
15819;DHT22;8010;53.986;12.106;2023-07-28T14:56:13;30.10;99.90
15819;DHT22;8010;53.986;12.106;2023-07-28T14:58:39;30.10;99.90
15819;DHT22;8010;53.986;12.106;2023-07-28T15:01:10;30.20;99.90
15819;DHT22;8010;53.986;12.106;2023-07-28T15:03:36;30.20;99.90
15819;DHT22;8010;53.986;12.106;2023-07-28T15:06:02;30.10;99.90
15819;DHT22;8010;53.986;12.106;2023-07-28T15:08:28;30.10;99.90
15819;DHT22;8010;53.986;12.106;2023-07-28T15:10:55;30.20;99.90
15819;DHT22;8010;53.986;12.106;2023-07-28T15:13:20;30.20;99.90
15819;DHT22;8010;53.986;12.106;2023-07-28T15:15:47;30.00;99.90
15819;DHT22;8010;53.986;12.106;2023-07-28T15:18:12;30.10;99.90
15819;DHT22;8010;53.986;12.106;2023-07-28T15:20:40;30.20;99.90
15819;DHT22;8010;53.986;12.106;2023-07-28T15:23:05;30.10;99.90
15819;DHT22;8010;53.986;12.106;2023-07-28T15:25:31;30.20;99.90
15819;DHT22;8010;53.986;12.106;2023-07-28T15:27:56;30.20;99.90
15819;DHT22;8010;53.986;12.106;2023-07-28T15:30:22;30.10;99.90